Time;durP1;ratioP1;P1;durP2;ratioP2;P2;SDS_P1;SDS_P2;PMS_P1;PMS_P2;Temp;Humidity;BMP_temperature;BMP_pressure;BME280_temperature;BME280_humidity;BME280_pressure;Samples;Min_cycle;Max_cycle;Signal;HPM_P1;HPM_P2
2023/01/08 00:00:48;;;;;;;7.25;1.20;;;6.70;99.90;;;;;;4902747;29;20020;-93
2023/01/08 00:03:14;;;;;;;18.08;2.13;;;6.60;99.90;;;;;;4902709;29;20088;-93
2023/01/08 00:05:40;;;;;;;21.58;4.25;;;6.70;99.90;;;;;;4903038;29;20034;-94
2023/01/08 00:08:09;;;;;;;11.38;2.00;;;6.60;99.90;;;;;;4902808;29;20042;-93
2023/01/08 00:10:37;;;;;;;13.68;2.20;;;6.60;99.90;;;;;;4902669;29;20039;-94
2023/01/08 00:13:03;;;;;;;11.52;2.25;;;6.70;99.90;;;;;;4918544;29;20087;-94
2023/01/08 00:15:29;;;;;;;17.05;2.00;;;6.60;99.90;;;;;;4902371;29;20457;-93
2023/01/08 00:17:56;;;;;;;16.30;2.00;;;6.60;99.90;;;;;;4902817;29;20028;-93
2023/01/08 00:20:21;;;;;;;16.38;2.22;;;6.70;99.90;;;;;;4902618;29;20036;-95
2023/01/08 00:22:48;;;;;;;23.30;2.47;;;6.70;99.90;;;;;;4902104;29;20025;-94
2023/01/08 00:25:15;;;;;;;20.83;2.20;;;6.70;99.90;;;;;;4918557;29;20219;-93
2023/01/08 00:27:41;;;;;;;17.42;2.13;;;6.70;99.90;;;;;;4917817;29;20470;-94
2023/01/08 00:30:08;;;;;;;14.07;1.83;;;6.70;99.90;;;;;;4902693;29;20043;-93
2023/01/08 00:32:34;;;;;;;13.57;3.30;;;6.70;99.90;;;;;;4915511;29;20082;-93
2023/01/08 00:35:00;;;;;;;30.30;2.63;;;6.70;99.90;;;;;;4919867;29;20067;-95
2023/01/08 00:37:26;;;;;;;19.83;2.90;;;6.70;99.90;;;;;;4919157;29;20023;-94
2023/01/08 00:39:52;;;;;;;17.67;2.20;;;6.60;99.90;;;;;;4919010;29;20052;-94
2023/01/08 00:42:17;;;;;;;9.02;2.30;;;6.70;99.90;;;;;;4935828;29;20036;-94
2023/01/08 00:44:43;;;;;;;18.73;3.03;;;6.70;99.90;;;;;;4919588;29;20047;-95
2023/01/08 00:47:09;;;;;;;17.98;2.42;;;6.70;99.90;;;;;;4920101;29;20031;-94
2023/01/08 00:49:34;;;;;;;14.90;2.60;;;6.60;99.90;;;;;;4920079;29;20038;-95
2023/01/08 00:52:00;;;;;;;13.23;2.08;;;6.60;99.90;;;;;;4920493;29;20485;-94
2023/01/08 00:54:29;;;;;;;18.63;2.40;;;6.60;99.90;;;;;;4920591;29;20449;-94
2023/01/08 00:56:55;;;;;;;29.05;4.55;;;6.60;99.90;;;;;;4906438;29;20572;-93
2023/01/08 00:59:20;;;;;;;14.75;2.15;;;6.70;99.90;;;;;;4923908;29;20055;-96
2023/01/08 01:01:47;;;;;;;19.92;2.45;;;6.60;99.90;;;;;;4922150;29;20118;-94
2023/01/08 01:04:13;;;;;;;18.40;2.58;;;6.60;99.90;;;;;;4924040;29;20082;-95
2023/01/08 01:06:40;;;;;;;14.75;2.53;;;6.60;99.90;;;;;;4927318;29;20032;-94
2023/01/08 01:09:06;;;;;;;16.88;2.90;;;6.70;99.90;;;;;;4938512;29;20013;-95
2023/01/08 01:11:33;;;;;;;22.55;3.65;;;6.70;99.90;;;;;;4949895;29;20094;-95
2023/01/08 01:13:58;;;;;;;16.80;2.28;;;6.70;99.90;;;;;;4941341;29;20027;-93
2023/01/08 01:16:25;;;;;;;16.75;2.50;;;6.70;99.90;;;;;;4941548;28;20143;-93
2023/01/08 01:18:51;;;;;;;27.23;4.10;;;6.80;99.90;;;;;;4942117;29;20043;-92
2023/01/08 01:21:21;;;;;;;23.00;2.33;;;6.80;99.90;;;;;;4941594;29;20020;-94
2023/01/08 01:23:52;;;;;;;22.27;2.55;;;6.80;99.90;;;;;;4941574;29;20031;-95
2023/01/08 01:26:19;;;;;;;19.63;3.13;;;6.80;99.90;;;;;;4957833;29;20039;-95
2023/01/08 01:28:53;;;;;;;14.73;2.53;;;6.80;99.90;;;;;;4935785;29;20485;-96
2023/01/08 01:31:19;;;;;;;17.05;2.72;;;6.80;99.90;;;;;;4928728;29;20131;-96
2023/01/08 01:33:45;;;;;;;14.60;2.38;;;6.90;99.90;;;;;;4929657;29;20024;-95
2023/01/08 01:36:12;;;;;;;19.63;2.38;;;6.80;99.90;;;;;;4930223;29;20078;-96
2023/01/08 01:38:42;;;;;;;25.10;2.28;;;6.80;99.90;;;;;;4925845;29;20080;-95
2023/01/08 01:41:20;;;;;;;19.52;2.85;;;6.80;99.90;;;;;;4925375;29;20020;-96
2023/01/08 01:43:46;;;;;;;23.98;3.53;;;6.70;99.90;;;;;;4942384;29;20127;-94
2023/01/08 01:46:17;;;;;;;19.42;3.28;;;6.70;99.90;;;;;;4929460;29;20028;-94
2023/01/08 01:48:44;;;;;;;17.80;2.72;;;6.80;99.90;;;;;;4928351;29;20028;-95
2023/01/08 01:51:10;;;;;;;22.23;3.25;;;6.80;99.90;;;;;;4946944;29;20077;-95
2023/01/08 01:53:37;;;;;;;13.52;2.60;;;6.80;99.90;;;;;;4929638;29;20086;-95
2023/01/08 01:56:03;;;;;;;13.43;2.50;;;6.80;99.90;;;;;;4926285;29;20064;-94
2023/01/08 01:58:31;;;;;;;19.25;2.63;;;6.80;99.90;;;;;;4937381;29;20074;-95
2023/01/08 02:01:03;;;;;;;13.80;2.55;;;6.80;99.90;;;;;;4924037;29;20035;-93
2023/01/08 02:03:32;;;;;;;16.67;2.88;;;6.80;99.90;;;;;;4921111;29;20024;-93
2023/01/08 02:06:22;;;;;;;15.77;2.65;;;6.80;99.90;;;;;;4919894;29;20035;-95
2023/01/08 02:09:14;;;;;;;20.85;2.65;;;6.80;99.90;;;;;;4935987;29;20036;-94
2023/01/08 02:12:16;;;;;;;23.27;2.60;;;6.80;99.90;;;;;;4919925;29;20106;-95
2023/01/08 02:15:03;;;;;;;18.50;4.35;;;6.80;99.90;;;;;;4936294;29;20063;-95
2023/01/08 02:17:47;;;;;;;19.33;2.20;;;6.80;99.90;;;;;;4939166;29;20028;-95
2023/01/08 02:20:22;;;;;;;10.68;1.80;;;6.80;99.90;;;;;;4939733;29;20128;-93
2023/01/08 02:23:15;;;;;;;9.25;2.25;;;6.80;99.90;;;;;;4923212;29;20027;-93
2023/01/08 02:25:56;;;;;;;17.38;2.08;;;6.70;99.90;;;;;;4924034;29;20028;-93
2023/01/08 02:28:23;;;;;;;24.80;3.80;;;6.70;99.90;;;;;;4939494;29;20034;-94
2023/01/08 02:30:49;;;;;;;14.20;1.75;;;6.70;99.90;;;;;;4939711;29;20052;-94
2023/01/08 02:33:15;;;;;;;16.52;2.10;;;6.70;99.90;;;;;;4924517;29;20051;-95
2023/01/08 02:36:13;;;;;;;11.45;1.90;;;6.70;99.90;;;;;;4923496;29;20032;-93
2023/01/08 02:38:47;;;;;;;18.98;1.95;;;6.70;99.90;;;;;;4847807;29;20050;-94
2023/01/08 02:41:14;;;;;;;20.10;2.72;;;6.80;99.90;;;;;;4847499;29;20029;-93
2023/01/08 02:43:48;;;;;;;15.43;1.67;;;6.80;99.90;;;;;;4847128;29;20034;-93
2023/01/08 02:46:18;;;;;;;13.20;1.88;;;6.80;99.90;;;;;;4848460;29;20067;-95
2023/01/08 02:48:55;;;;;;;11.93;2.08;;;6.80;99.90;;;;;;4848819;29;20045;-95
2023/01/08 02:51:27;;;;;;;13.93;2.03;;;6.80;99.90;;;;;;4847861;29;20065;-94
2023/01/08 02:54:06;;;;;;;14.15;1.90;;;6.80;99.90;;;;;;4848757;29;20036;-96
2023/01/08 02:56:39;;;;;;;9.95;1.40;;;6.80;99.90;;;;;;4847546;29;20033;-96
2023/01/08 02:59:06;;;;;;;12.73;2.22;;;6.80;99.90;;;;;;4848335;29;20029;-95
2023/01/08 03:01:33;;;;;;;13.75;1.65;;;6.80;99.90;;;;;;4848997;29;20037;-95
2023/01/08 03:04:05;;;;;;;16.75;1.80;;;6.80;99.90;;;;;;4838100;29;20030;-96
2023/01/08 03:06:31;;;;;;;19.38;1.58;;;6.80;99.90;;;;;;4832778;29;20512;-95
2023/01/08 03:08:59;;;;;;;11.93;1.92;;;6.80;99.90;;;;;;4834867;29;20046;-93
2023/01/08 03:11:30;;;;;;;4.95;1.35;;;6.80;99.90;;;;;;4827262;29;20222;-95
2023/01/08 03:14:14;;;;;;;14.57;2.10;;;6.80;99.90;;;;;;4852929;29;20037;-96
2023/01/08 03:16:47;;;;;;;9.98;1.48;;;6.80;99.90;;;;;;4899691;29;20060;-95
2023/01/08 03:19:28;;;;;;;8.95;1.40;;;6.70;99.90;;;;;;4901240;29;20039;-96
2023/01/08 03:21:56;;;;;;;17.25;1.55;;;6.70;99.90;;;;;;4900692;29;20045;-93
2023/01/08 03:24:27;;;;;;;9.98;1.17;;;6.70;99.90;;;;;;4899832;29;20028;-95
2023/01/08 03:26:54;;;;;;;;;;;6.70;99.90;;;;;;4899226;29;20483;-95
2023/01/08 03:29:23;;;;;;;12.55;2.42;;;6.70;99.90;;;;;;4899281;29;19914;-94
2023/01/08 03:31:51;;;;;;;10.65;1.58;;;6.60;99.90;;;;;;4898906;29;20028;-94
2023/01/08 03:34:19;;;;;;;9.57;1.55;;;6.60;99.90;;;;;;4899173;29;20035;-94
2023/01/08 03:36:49;;;;;;;4.80;1.10;;;6.70;99.90;;;;;;4899732;29;20040;-95
2023/01/08 03:39:21;;;;;;;5.30;1.02;;;6.60;99.90;;;;;;4898972;29;20052;-92
2023/01/08 03:41:48;;;;;;;6.28;1.40;;;6.60;99.90;;;;;;4898808;29;20040;-93
2023/01/08 03:44:14;;;;;;;7.30;1.67;;;6.60;99.90;;;;;;4898847;29;20032;-94
2023/01/08 03:46:46;;;;;;;12.32;1.42;;;6.50;99.90;;;;;;4898265;29;20392;-94
2023/01/08 03:49:13;;;;;;;10.13;2.13;;;6.50;99.90;;;;;;4899050;29;20543;-92
2023/01/08 03:51:44;;;;;;;11.32;1.60;;;6.50;99.90;;;;;;4898492;29;20035;-93
2023/01/08 03:54:15;;;;;;;11.25;1.73;;;6.50;99.90;;;;;;4898273;29;20514;-94
2023/01/08 03:56:41;;;;;;;4.00;1.15;;;6.50;99.90;;;;;;4898210;29;20077;-94
2023/01/08 03:59:07;;;;;;;10.93;2.30;;;6.50;99.90;;;;;;4898810;29;20021;-93
2023/01/08 04:01:33;;;;;;;12.02;1.52;;;6.50;99.90;;;;;;4897827;29;20040;-95
2023/01/08 04:03:59;;;;;;;11.13;1.88;;;6.40;99.90;;;;;;4897917;29;20213;-92
2023/01/08 04:06:24;;;;;;;12.05;1.33;;;6.40;99.90;;;;;;4898392;29;20032;-95
2023/01/08 04:08:50;;;;;;;11.65;1.50;;;6.40;99.90;;;;;;4897687;29;20238;-94
2023/01/08 04:11:16;;;;;;;13.57;1.85;;;6.30;99.90;;;;;;4898487;29;20075;-96
2023/01/08 04:13:41;;;;;;;8.35;1.30;;;6.30;99.90;;;;;;4898133;29;20475;-95
2023/01/08 04:16:07;;;;;;;14.77;1.67;;;6.30;99.90;;;;;;4897807;29;20040;-94
2023/01/08 04:18:33;;;;;;;5.28;1.25;;;6.30;99.90;;;;;;4898255;29;20028;-92
2023/01/08 04:20:59;;;;;;;9.57;2.00;;;6.30;99.90;;;;;;4898519;29;20028;-93
2023/01/08 04:23:25;;;;;;;8.23;1.50;;;6.30;99.90;;;;;;4898497;29;20494;-93
2023/01/08 04:25:52;;;;;;;12.48;2.03;;;6.20;99.90;;;;;;4899799;29;20033;-92
2023/01/08 04:28:18;;;;;;;9.40;1.65;;;6.20;99.90;;;;;;4900579;29;20025;-94
2023/01/08 04:30:44;;;;;;;14.48;1.83;;;6.30;99.90;;;;;;4900262;29;20054;-94
2023/01/08 04:33:09;;;;;;;7.00;1.35;;;6.20;99.90;;;;;;4903520;29;20033;-95
2023/01/08 04:35:35;;;;;;;8.20;1.10;;;6.20;99.90;;;;;;4904126;29;20028;-94
2023/01/08 04:38:01;;;;;;;9.20;1.25;;;6.20;99.90;;;;;;4904310;29;20045;-96
2023/01/08 04:40:27;;;;;;;6.50;1.13;;;6.20;99.90;;;;;;4919388;29;20017;-92
2023/01/08 04:42:52;;;;;;;6.07;1.40;;;6.20;99.90;;;;;;4920735;29;20032;-93
2023/01/08 04:45:18;;;;;;;9.27;1.13;;;6.10;99.90;;;;;;4920079;29;20043;-93
2023/01/08 04:47:44;;;;;;;9.85;1.50;;;6.10;99.90;;;;;;4908601;29;20534;-95
2023/01/08 04:50:10;;;;;;;14.02;1.55;;;6.10;99.90;;;;;;4901252;29;20040;-95
2023/01/08 04:52:35;;;;;;;9.50;1.30;;;6.10;99.90;;;;;;4900080;29;20061;-95
2023/01/08 04:55:01;;;;;;;5.15;0.95;;;6.10;99.90;;;;;;4899030;29;20091;-95
2023/01/08 04:57:27;;;;;;;13.43;1.38;;;6.10;99.90;;;;;;4898859;29;20119;-94
2023/01/08 04:59:52;;;;;;;11.68;1.45;;;6.00;99.90;;;;;;4898042;29;20028;-93
2023/01/08 05:02:18;;;;;;;8.98;1.15;;;6.00;99.90;;;;;;4898030;29;20028;-96
2023/01/08 05:04:44;;;;;;;7.88;1.98;;;6.00;99.90;;;;;;4898018;29;20033;-95
2023/01/08 05:07:09;;;;;;;6.55;1.20;;;6.00;99.90;;;;;;4896943;29;20111;-94
2023/01/08 05:09:35;;;;;;;7.00;0.90;;;6.00;99.90;;;;;;4897870;29;20115;-95
2023/01/08 05:12:01;;;;;;;11.48;1.15;;;5.90;99.90;;;;;;4898408;29;20028;-94
2023/01/08 05:14:28;;;;;;;8.52;1.08;;;5.90;99.90;;;;;;4898543;29;20031;-94
2023/01/08 05:16:53;;;;;;;9.23;1.00;;;5.90;99.90;;;;;;4898915;29;20126;-95
2023/01/08 05:19:19;;;;;;;7.78;1.10;;;5.90;99.90;;;;;;4898151;29;20068;-95
2023/01/08 05:21:44;;;;;;;7.75;0.85;;;5.90;99.90;;;;;;4904300;29;20150;-95
2023/01/08 05:24:10;;;;;;;11.65;1.33;;;5.90;99.90;;;;;;4903259;29;20494;-94
2023/01/08 05:26:36;;;;;;;9.35;1.23;;;5.80;99.90;;;;;;4902178;29;20044;-93
2023/01/08 05:29:01;;;;;;;6.05;1.00;;;5.80;99.90;;;;;;4900434;29;20024;-95
2023/01/08 05:31:28;;;;;;;4.30;0.80;;;5.80;99.90;;;;;;4898755;29;20131;-95
2023/01/08 05:33:56;;;;;;;7.28;1.50;;;5.80;99.90;;;;;;4897767;29;20085;-95
2023/01/08 05:36:21;;;;;;;10.57;0.80;;;5.80;99.90;;;;;;4897066;29;20089;-94
2023/01/08 05:38:47;;;;;;;6.78;0.80;;;5.80;99.90;;;;;;4894883;29;20060;-94
2023/01/08 05:41:13;;;;;;;9.80;1.15;;;5.80;99.90;;;;;;4896604;29;20081;-93
2023/01/08 05:43:38;;;;;;;6.63;0.90;;;5.90;99.90;;;;;;4913834;29;20119;-94
2023/01/08 05:46:04;;;;;;;12.27;0.73;;;5.80;99.90;;;;;;4914897;29;20028;-94
2023/01/08 05:48:32;;;;;;;8.15;0.95;;;5.80;99.90;;;;;;4915502;29;20088;-94
2023/01/08 05:50:58;;;;;;;4.32;0.75;;;5.90;99.90;;;;;;4933638;29;20501;-94
2023/01/08 05:53:23;;;;;;;4.43;0.52;;;5.90;99.90;;;;;;4919151;29;20036;-95
2023/01/08 05:55:49;;;;;;;2.05;0.55;;;5.90;99.90;;;;;;4919323;29;20028;-94
2023/01/08 05:58:17;;;;;;;2.03;0.38;;;5.90;99.90;;;;;;4919834;29;20024;-95
2023/01/08 06:00:44;;;;;;;2.17;0.40;;;5.90;99.90;;;;;;4924486;29;20040;-95
2023/01/08 06:03:09;;;;;;;2.28;0.43;;;5.90;99.90;;;;;;4922297;29;20028;-94
2023/01/08 06:05:35;;;;;;;3.05;0.43;;;5.90;99.90;;;;;;4938884;29;20039;-95
2023/01/08 06:08:04;;;;;;;2.65;0.60;;;5.90;99.90;;;;;;4923715;29;20036;-95
2023/01/08 06:10:29;;;;;;;2.30;0.40;;;5.80;99.90;;;;;;4923643;29;20119;-96
2023/01/08 06:12:55;;;;;;;2.05;0.40;;;5.80;99.90;;;;;;4921966;29;20020;-94
2023/01/08 06:15:21;;;;;;;1.80;0.40;;;5.80;99.90;;;;;;4924204;29;20032;-93
2023/01/08 06:17:49;;;;;;;6.18;1.20;;;5.80;99.90;;;;;;4931253;29;20116;-96
2023/01/08 06:20:21;;;;;;;1.60;0.40;;;5.80;99.90;;;;;;4933346;29;20044;-95
2023/01/08 06:22:47;;;;;;;2.80;0.52;;;5.80;99.90;;;;;;4937483;29;20031;-96
2023/01/08 06:25:14;;;;;;;2.35;0.57;;;5.80;99.90;;;;;;4931791;29;20032;-96
2023/01/08 06:27:39;;;;;;;2.78;0.20;;;5.80;99.90;;;;;;4929031;29;20032;-96
2023/01/08 06:30:06;;;;;;;1.88;0.30;;;5.80;99.90;;;;;;4928606;29;20044;-94
2023/01/08 06:32:32;;;;;;;3.88;0.50;;;5.70;99.90;;;;;;4926471;29;20118;-95
2023/01/08 06:35:00;;;;;;;1.33;0.30;;;5.70;99.90;;;;;;4931376;29;20035;-96
2023/01/08 06:37:26;;;;;;;0.70;0.25;;;5.60;99.90;;;;;;4915900;29;20024;-96
2023/01/08 06:39:54;;;;;;;0.55;0.25;;;5.60;99.90;;;;;;4928383;29;20055;-95
2023/01/08 06:42:21;;;;;;;1.30;0.28;;;5.60;99.90;;;;;;4930080;29;20459;-96
2023/01/08 06:44:48;;;;;;;0.70;0.20;;;5.60;99.90;;;;;;4928297;29;20095;-96
2023/01/08 06:47:13;;;;;;;2.92;0.30;;;5.60;99.90;;;;;;4926375;29;20486;-95
2023/01/08 06:49:39;;;;;;;1.63;0.22;;;5.60;99.90;;;;;;4904580;29;20060;-96
2023/01/08 06:52:05;;;;;;;0.88;0.25;;;5.50;99.90;;;;;;4900768;29;20100;-96
2023/01/08 06:54:32;;;;;;;1.95;0.40;;;5.50;99.90;;;;;;4899632;29;20394;-95
2023/01/08 06:56:57;;;;;;;1.75;0.20;;;5.50;99.90;;;;;;4914812;29;20028;-94
2023/01/08 06:59:23;;;;;;;1.05;0.20;;;5.50;99.90;;;;;;4900806;29;20072;-96
2023/01/08 07:01:49;;;;;;;0.43;0.13;;;5.50;99.90;;;;;;4900203;29;20040;-96
2023/01/08 07:04:16;;;;;;;0.98;0.15;;;5.60;99.90;;;;;;4900998;29;20028;-96
2023/01/08 07:06:44;;;;;;;0.47;0.17;;;5.60;99.90;;;;;;4919708;29;20017;-94
2023/01/08 07:09:16;;;;;;;1.10;0.30;;;5.60;99.90;;;;;;4924073;29;20013;-93
2023/01/08 07:11:41;;;;;;;1.65;0.30;;;5.60;99.90;;;;;;4918750;29;20052;-95
2023/01/08 07:14:07;;;;;;;0.32;0.10;;;5.60;99.90;;;;;;4919638;29;20401;-96
2023/01/08 07:16:33;;;;;;;2.28;0.30;;;5.60;99.90;;;;;;4917748;29;20025;-94
2023/01/08 07:18:59;;;;;;;1.10;0.20;;;5.60;99.90;;;;;;4900354;29;20056;-93
2023/01/08 07:21:24;;;;;;;0.10;0.10;;;5.60;99.90;;;;;;4900346;29;20035;-94
2023/01/08 07:23:50;;;;;;;1.88;0.20;;;5.60;99.90;;;;;;4899958;29;20028;-93
2023/01/08 07:26:17;;;;;;;0.68;0.10;;;5.50;99.90;;;;;;4900269;29;20292;-94
2023/01/08 07:28:43;;;;;;;0.28;0.13;;;5.50;99.90;;;;;;4920409;29;20108;-95
2023/01/08 07:31:11;;;;;;;1.55;0.30;;;5.50;99.90;;;;;;4906163;29;20025;-95
2023/01/08 07:33:37;;;;;;;2.35;0.20;;;5.40;99.90;;;;;;4905747;29;20109;-95
2023/01/08 07:36:04;;;;;;;0.50;0.28;;;5.40;99.90;;;;;;4916640;29;20033;-95
2023/01/08 07:38:30;;;;;;;0.38;0.10;;;5.40;99.90;;;;;;4909222;29;20072;-96
2023/01/08 07:40:59;;;;;;;0.60;0.20;;;5.40;99.90;;;;;;4910567;29;20043;-96
2023/01/08 07:43:25;;;;;;;1.40;0.20;;;5.30;99.90;;;;;;4913780;29;20033;-93
2023/01/08 07:45:51;;;;;;;1.50;0.20;;;5.30;99.90;;;;;;4899139;29;20043;-94
2023/01/08 07:48:16;;;;;;;0.32;0.10;;;5.30;99.90;;;;;;4898132;29;20024;-94
2023/01/08 07:50:43;;;;;;;3.28;0.60;;;5.30;99.90;;;;;;4913405;29;20052;-93
2023/01/08 07:53:11;;;;;;;0.90;0.40;;;5.30;99.90;;;;;;4897148;29;20115;-93
2023/01/08 07:55:36;;;;;;;0.52;0.30;;;5.30;99.90;;;;;;4898049;29;20029;-94
2023/01/08 07:58:09;;;;;;;3.13;0.30;;;5.30;99.90;;;;;;4894643;29;20017;-94
2023/01/08 08:00:45;;;;;;;2.25;0.38;;;5.30;99.90;;;;;;4900052;29;20044;-95
2023/01/08 08:03:11;;;;;;;0.35;0.10;;;5.20;99.90;;;;;;4900114;29;20017;-94
2023/01/08 08:05:37;;;;;;;2.58;0.65;;;5.20;99.90;;;;;;4899810;29;20031;-95
2023/01/08 08:08:08;;;;;;;1.40;0.25;;;5.20;99.90;;;;;;4899526;29;20040;-96
2023/01/08 08:10:34;;;;;;;3.90;0.45;;;5.20;99.90;;;;;;4901045;29;20036;-96
2023/01/08 08:13:00;;;;;;;2.13;0.38;;;5.20;99.90;;;;;;4897789;29;20027;-95
2023/01/08 08:15:25;;;;;;;1.35;0.30;;;5.10;99.90;;;;;;4897438;29;20127;-96
2023/01/08 08:17:51;;;;;;;3.22;0.80;;;5.10;99.90;;;;;;4897998;29;20084;-95
2023/01/08 08:23:36;;;;;;;1.08;0.40;;;5.10;99.90;;;;;;5688521;23;20163;-94
2023/01/08 08:26:03;;;;;;;1.83;0.80;;;5.10;99.90;;;;;;4973965;28;20046;-94
2023/01/08 08:28:29;;;;;;;0.70;0.70;;;5.10;99.90;;;;;;4956209;28;20456;-93
2023/01/08 08:30:54;;;;;;;2.60;0.70;;;5.10;99.90;;;;;;4948091;28;20038;-93
2023/01/08 08:33:20;;;;;;;2.40;1.10;;;5.10;99.90;;;;;;4971753;28;20019;-93
2023/01/08 08:35:50;;;;;;;4.60;1.40;;;5.10;99.90;;;;;;4950295;29;20054;-94
2023/01/08 08:38:16;;;;;;;2.92;1.52;;;5.10;99.90;;;;;;4949809;28;20022;-93
2023/01/08 08:40:42;;;;;;;3.45;1.48;;;5.10;99.90;;;;;;4963154;28;20124;-94
2023/01/08 08:43:08;;;;;;;5.88;1.60;;;5.10;99.90;;;;;;4948857;28;20042;-94
2023/01/08 08:45:34;;;;;;;2.17;1.60;;;5.10;99.90;;;;;;4948422;28;20050;-94
2023/01/08 08:48:00;;;;;;;4.38;1.85;;;5.10;99.90;;;;;;4946864;28;20027;-94
2023/01/08 08:50:26;;;;;;;3.92;3.05;;;5.10;99.90;;;;;;4947761;28;20031;-94
2023/01/08 08:53:01;;;;;;;7.18;1.75;;;5.10;99.90;;;;;;4950349;28;20031;-95
2023/01/08 08:55:28;;;;;;;4.13;1.67;;;5.10;99.90;;;;;;4950522;28;20122;-94
2023/01/08 08:57:53;;;;;;;6.30;2.20;;;5.10;99.90;;;;;;4950420;28;20023;-93
2023/01/08 09:00:19;;;;;;;5.90;2.00;;;5.10;99.90;;;;;;4966865;28;20033;-93
2023/01/08 09:02:49;;;;;;;3.13;1.60;;;5.10;99.90;;;;;;4948262;28;20026;-94
2023/01/08 09:05:16;;;;;;;3.90;1.05;;;5.10;99.90;;;;;;4948880;28;20041;-95
2023/01/08 09:07:41;;;;;;;3.03;1.20;;;5.10;99.90;;;;;;4946383;28;20023;-95
2023/01/08 09:10:07;;;;;;;7.53;1.77;;;5.10;99.90;;;;;;4949207;28;20493;-94
2023/01/08 09:12:35;;;;;;;2.40;1.45;;;5.10;99.90;;;;;;4963682;28;20054;-95
2023/01/08 09:15:00;;;;;;;10.05;1.40;;;5.10;99.90;;;;;;4951776;28;20058;-95
2023/01/08 09:17:26;;;;;;;5.53;1.80;;;5.10;99.90;;;;;;4965261;28;20020;-94
2023/01/08 09:19:52;;;;;;;3.25;1.30;;;5.10;99.90;;;;;;4949296;28;20094;-94
2023/01/08 09:22:19;;;;;;;4.38;1.40;;;5.10;99.90;;;;;;4968055;28;20038;-94
2023/01/08 09:24:45;;;;;;;4.28;1.58;;;5.10;99.90;;;;;;4948549;28;20049;-92
2023/01/08 09:27:11;;;;;;;3.90;1.45;;;5.20;99.90;;;;;;4965272;28;20023;-95
2023/01/08 09:29:37;;;;;;;3.47;2.28;;;5.20;99.90;;;;;;4964363;28;20027;-92
2023/01/08 09:32:06;;;;;;;3.75;1.33;;;5.20;99.90;;;;;;4945543;28;20035;-95
2023/01/08 09:34:32;;;;;;;5.28;1.20;;;5.20;99.90;;;;;;4963987;28;20019;-94
2023/01/08 09:37:01;;;;;;;3.75;1.20;;;5.30;99.90;;;;;;4947685;28;20042;-96
2023/01/08 09:39:27;;;;;;;2.90;1.48;;;5.30;99.90;;;;;;4964468;28;20030;-94
2023/01/08 09:41:54;;;;;;;3.88;1.30;;;5.30;99.90;;;;;;4950055;28;20039;-95
2023/01/08 09:44:25;;;;;;;6.47;1.27;;;5.30;99.90;;;;;;4964854;28;20026;-94
2023/01/08 09:46:54;;;;;;;3.10;1.23;;;5.30;99.90;;;;;;4946437;28;20027;-94
2023/01/08 09:49:24;;;;;;;7.82;1.17;;;5.40;99.90;;;;;;4945645;28;20019;-94
2023/01/08 09:51:51;;;;;;;3.45;1.50;;;5.40;99.90;;;;;;4946538;28;20054;-94
2023/01/08 09:54:17;;;;;;;11.32;1.92;;;5.40;99.90;;;;;;4949229;28;20031;-92
2023/01/08 09:56:43;;;;;;;4.65;1.20;;;5.40;99.90;;;;;;4947409;28;20037;-92
2023/01/08 09:59:15;;;;;;;3.38;1.15;;;5.40;99.90;;;;;;4947755;28;20054;-95
2023/01/08 10:01:44;;;;;;;7.63;0.98;;;5.40;99.90;;;;;;4949659;28;20023;-94
2023/01/08 10:04:23;;;;;;;7.65;1.20;;;5.50;99.90;;;;;;4963100;28;20023;-93
2023/01/08 10:07:20;;;;;;;9.07;1.48;;;5.50;99.90;;;;;;4964628;28;20023;-92
2023/01/08 10:09:48;;;;;;;5.35;0.77;;;5.50;99.90;;;;;;4938779;28;20416;-93
2023/01/08 10:12:15;;;;;;;7.00;1.10;;;5.60;99.90;;;;;;4948075;28;20540;-93
2023/01/08 10:14:48;;;;;;;5.82;0.82;;;5.60;99.90;;;;;;4945287;28;20038;-92
2023/01/08 10:17:23;;;;;;;8.40;1.65;;;5.60;99.90;;;;;;4963764;28;20058;-95
2023/01/08 10:19:49;;;;;;;7.30;1.50;;;5.60;99.90;;;;;;4954826;28;20035;-93
2023/01/08 10:22:19;;;;;;;5.15;0.98;;;5.60;99.90;;;;;;4953362;28;20027;-92
2023/01/08 10:24:45;;;;;;;8.98;1.13;;;5.70;99.90;;;;;;4945979;28;20075;-93
2023/01/08 10:27:13;;;;;;;7.97;2.20;;;5.70;99.90;;;;;;4941393;28;20034;-96
2023/01/08 10:29:39;;;;;;;5.63;1.15;;;5.70;99.90;;;;;;4956867;28;20031;-94
2023/01/08 10:32:29;;;;;;;5.95;2.05;;;5.70;99.90;;;;;;4942210;28;20092;-94
2023/01/08 10:34:57;;;;;;;12.77;2.03;;;5.70;99.90;;;;;;4952959;28;20039;-93
2023/01/08 10:37:38;;;;;;;8.57;1.10;;;5.70;99.90;;;;;;4952237;28;20028;-93
2023/01/08 10:40:22;;;;;;;;;;;5.80;99.90;;;;;;4951546;28;20030;-92
2023/01/08 10:42:49;;;;;;;7.50;0.95;;;5.80;99.90;;;;;;4967073;28;19997;-94
2023/01/08 10:45:24;;;;;;;11.00;1.10;;;5.80;99.90;;;;;;4954522;28;20073;-93
2023/01/08 10:47:55;;;;;;;7.20;1.38;;;5.80;99.90;;;;;;4973118;28;20015;-94
2023/01/08 10:50:32;;;;;;;11.70;1.50;;;5.80;99.90;;;;;;4972723;28;20050;-93
2023/01/08 10:53:03;;;;;;;6.65;1.10;;;5.90;99.90;;;;;;4956024;28;20035;-92
2023/01/08 10:55:38;;;;;;;7.68;1.17;;;5.90;99.90;;;;;;4945610;28;20474;-94
2023/01/08 10:58:13;;;;;;;5.10;1.10;;;5.90;99.90;;;;;;4949606;28;20082;-95
2023/01/08 11:00:38;;;;;;;11.18;1.23;;;5.90;99.90;;;;;;4969004;28;20061;-95
2023/01/08 11:03:22;;;;;;;5.32;0.85;;;5.90;99.90;;;;;;4971745;28;20070;-93
2023/01/08 11:05:50;;;;;;;21.58;1.85;;;5.90;99.90;;;;;;4957243;28;20031;-95
2023/01/08 11:08:19;;;;;;;13.07;1.38;;;5.90;99.90;;;;;;4980358;28;20015;-96
2023/01/08 11:10:55;;;;;;;9.48;1.55;;;5.90;99.90;;;;;;4973032;28;20034;-95
2023/01/08 11:13:22;;;;;;;9.48;1.45;;;6.00;99.90;;;;;;4976274;28;20027;-96
2023/01/08 11:16:02;;;;;;;11.50;1.83;;;6.00;99.90;;;;;;4969215;28;20019;-93
2023/01/08 11:18:28;;;;;;;13.82;1.85;;;6.00;99.90;;;;;;4966746;28;20015;-95
2023/01/08 11:21:07;;;;;;;9.35;1.30;;;6.00;99.90;;;;;;4981961;28;20035;-94
2023/01/08 11:23:33;;;;;;;16.45;1.70;;;6.00;99.90;;;;;;4988276;28;20495;-96
2023/01/08 11:26:09;;;;;;;8.00;1.10;;;6.10;99.90;;;;;;4969711;28;20062;-96
2023/01/08 11:29:04;;;;;;;14.35;1.40;;;6.10;99.90;;;;;;4969093;28;20043;-95
2023/01/08 11:31:42;;;;;;;10.93;1.80;;;6.10;99.90;;;;;;4964182;28;20039;-96
2023/01/08 11:34:17;;;;;;;13.98;1.77;;;6.20;99.90;;;;;;4969976;28;20027;-92
2023/01/08 11:36:56;;;;;;;10.43;1.48;;;6.20;99.90;;;;;;4979917;28;20035;-95
2023/01/08 11:39:24;;;;;;;9.65;1.48;;;6.20;99.90;;;;;;4990118;28;20027;-95
2023/01/08 11:42:13;;;;;;;16.35;1.83;;;6.30;99.90;;;;;;4964477;28;20045;-96
2023/01/08 11:45:01;;;;;;;8.93;1.58;;;6.30;99.90;;;;;;4958780;28;20031;-94
2023/01/08 11:48:00;;;;;;;10.68;1.95;;;6.30;99.90;;;;;;4953627;28;20030;-92
2023/01/08 11:50:43;;;;;;;13.68;2.25;;;6.30;99.90;;;;;;4954458;28;20500;-95
2023/01/08 11:53:25;;;;;;;12.93;1.83;;;6.30;99.90;;;;;;4966442;28;20058;-92
2023/01/08 11:56:20;;;;;;;14.32;2.10;;;6.30;99.90;;;;;;4959503;28;20110;-93
2023/01/08 11:58:51;;;;;;;16.45;2.17;;;6.20;99.90;;;;;;4967363;28;20023;-94
2023/01/08 12:01:29;;;;;;;14.02;2.17;;;6.20;99.90;;;;;;4976512;28;20083;-94
2023/01/08 12:04:13;;;;;;;12.82;1.63;;;6.20;99.90;;;;;;4980398;28;20034;-94
2023/01/08 12:07:05;;;;;;;8.95;2.17;;;6.20;99.90;;;;;;4960652;28;20035;-92
2023/01/08 12:09:55;;;;;;;10.85;2.17;;;6.20;99.90;;;;;;4982010;28;20226;-95
2023/01/08 12:12:58;;;;;;;13.18;1.90;;;6.30;99.90;;;;;;4972895;28;20046;-92
2023/01/08 12:15:46;;;;;;;13.07;1.75;;;6.30;99.90;;;;;;4953434;28;20030;-94
2023/01/08 12:18:34;;;;;;;10.32;1.63;;;6.30;99.90;;;;;;4956700;28;20027;-93
2023/01/08 12:21:31;;;;;;;10.02;1.13;;;6.30;99.90;;;;;;4971043;28;20505;-94
2023/01/08 12:24:18;;;;;;;11.70;1.45;;;6.30;99.90;;;;;;4955098;28;20098;-94
2023/01/08 12:27:17;;;;;;;14.90;1.70;;;6.30;99.90;;;;;;4950159;28;20500;-94
2023/01/08 15:43:17;;;;;;;4.43;2.57;;;6.00;99.90;;;;;;4968579;28;20519;-91
2023/01/08 15:45:45;;;;;;;7.05;2.78;;;6.00;99.90;;;;;;4965373;28;20263;-92
2023/01/08 15:48:11;;;;;;;8.50;3.50;;;6.10;99.90;;;;;;4966437;28;20023;-93
2023/01/08 15:50:40;;;;;;;10.93;3.15;;;6.10;99.90;;;;;;4950372;28;20039;-93
2023/01/08 15:53:15;;;;;;;1.88;0.90;;;6.10;99.90;;;;;;4948525;28;20536;-90
2023/01/08 15:55:43;;;;;;;4.00;1.95;;;6.20;99.90;;;;;;4965459;28;20034;-92
2023/01/08 15:58:13;;;;;;;22.02;9.55;;;6.20;99.90;;;;;;4963070;28;20156;-92
2023/01/08 16:00:40;;;;;;;3.55;1.80;;;6.20;99.90;;;;;;4965999;28;20030;-92
2023/01/08 16:03:07;;;;;;;12.63;5.80;;;6.30;99.90;;;;;;4950593;28;20031;-94
2023/01/08 16:05:34;;;;;;;12.43;3.70;;;6.30;99.90;;;;;;4949461;28;20444;-93
2023/01/08 16:08:00;;;;;;;4.43;2.28;;;6.40;99.90;;;;;;4932770;28;20370;-92
2023/01/08 16:10:27;;;;;;;4.45;1.77;;;6.40;99.90;;;;;;4951093;28;20050;-93
2023/01/08 16:12:54;;;;;;;4.60;2.10;;;6.40;99.90;;;;;;4949588;28;20094;-92
2023/01/08 16:15:19;;;;;;;3.25;1.73;;;6.40;99.90;;;;;;4937429;29;20036;-93
2023/01/08 16:17:45;;;;;;;5.25;1.88;;;6.40;99.90;;;;;;4928369;29;20028;-92
2023/01/08 16:20:13;;;;;;;5.32;2.25;;;6.30;99.90;;;;;;4930994;29;20118;-93
2023/01/08 16:22:39;;;;;;;4.60;2.80;;;6.30;99.90;;;;;;4947223;29;20049;-94